Time;durP1;ratioP1;P1;durP2;ratioP2;P2;SDS_P1;SDS_P2;PMS_P1;PMS_P2;Temp;Humidity;BMP_temperature;BMP_pressure;BME280_temperature;BME280_humidity;BME280_pressure;Samples;Min_cycle;Max_cycle;Signal;HPM_P1;HPM_P2
2021/04/04 00:01:41;;;;;;;2.45;0.80;;;;;;;17.83;47.12;102962.72;6238682;23;20025;-78
2021/04/04 00:04:21;;;;;;;2.63;0.80;;;;;;;17.83;47.10;102962.72;6240555;23;20010;-78
2021/04/04 00:06:49;;;;;;;1.73;0.80;;;;;;;17.80;46.94;102953.91;6240477;23;19995;-80
2021/04/04 00:09:19;;;;;;;2.40;0.80;;;;;;;17.83;46.98;102965.31;6239688;23;20012;-77
2021/04/04 00:12:19;;;;;;;1.77;0.75;;;;;;;17.82;46.98;102953.13;6215036;23;20011;-78
2021/04/04 00:15:05;;;;;;;1.27;0.75;;;;;;;17.82;46.98;102958.31;6240985;23;20004;-78
2021/04/04 00:17:32;;;;;;;1.88;0.88;;;;;;;17.82;47.06;102955.72;6271533;22;20038;-77
2021/04/04 00:23:50;;;;;;;2.25;0.82;;;;;;;17.79;47.04;102959.94;6275812;22;20082;-77
2021/04/04 00:29:25;;;;;;;1.50;0.75;;;;;;;17.81;47.15;102953.94;6299477;22;20051;-79
2021/04/04 00:35:10;;;;;;;1.83;0.73;;;;;;;17.80;47.23;102956.50;6269107;23;20011;-78
2021/04/04 00:38:05;;;;;;;1.70;0.80;;;;;;;17.80;47.08;102949.56;6267773;22;20003;-78
2021/04/04 00:40:39;;;;;;;0.90;0.63;;;;;;;17.79;47.00;102939.09;6213248;23;20064;-78
2021/04/04 00:45:59;;;;;;;1.23;0.73;;;;;;;17.79;46.97;102939.09;6295276;22;20022;-78
2021/04/04 00:49:03;;;;;;;1.20;0.60;;;;;;;17.79;47.04;102942.63;6291798;22;20015;-78
2021/04/04 00:51:33;;;;;;;1.55;0.70;;;;;;;17.77;47.15;102936.47;6298169;22;20012;-77
2021/04/04 00:54:16;;;;;;;2.00;0.82;;;;;;;17.78;47.14;102937.34;6254528;22;20023;-78
2021/04/04 00:56:48;;;;;;;2.53;0.90;;;;;;;17.77;47.08;102932.97;6213605;23;20004;-78
2021/04/04 01:23:48;;;;;;;1.88;0.80;;;;;;;17.76;46.89;102926.03;6267478;22;20063;-80
2021/04/04 01:30:24;;;;;;;1.75;0.70;;;;;;;17.74;47.14;102928.59;6197857;22;20090;31
2021/04/04 01:32:56;;;;;;;1.27;0.60;;;;;;;17.71;47.29;102923.31;6228856;23;20444;-78
2021/04/04 01:35:47;;;;;;;1.35;0.70;;;;;;;17.71;47.03;102915.50;6230287;23;20033;-77
2021/04/04 01:41:14;;;;;;;1.20;0.60;;;;;;;17.71;46.88;102912.03;6305606;22;20030;-78
2021/04/04 01:43:50;;;;;;;1.88;0.80;;;;;;;17.70;47.00;102913.72;6218481;22;20016;-78
2021/04/04 01:46:31;;;;;;;1.48;0.70;;;;;;;17.71;47.21;102912.91;6256127;22;20023;-78
2021/04/04 01:49:00;;;;;;;0.70;0.60;;;;;;;17.72;47.18;102913.78;6301625;22;20011;-77
2021/04/04 01:51:28;;;;;;;1.08;0.60;;;;;;;17.71;46.85;102909.44;6268887;22;20015;-77
2021/04/04 01:53:57;;;;;;;1.80;0.80;;;;;;;17.68;46.93;102899.78;6292980;22;20004;-78
2021/04/04 01:56:30;;;;;;;1.58;0.70;;;;;;;17.68;47.04;102899.78;6294358;22;20004;-79
2021/04/04 01:59:15;;;;;;;1.70;0.80;;;;;;;17.71;47.09;102909.44;6244755;22;20034;-78
2021/04/04 02:01:45;;;;;;;1.52;0.60;;;;;;;17.69;47.07;102896.38;6298087;22;20007;-78
2021/04/04 02:04:14;;;;;;;1.92;0.80;;;;;;;17.68;46.84;102892.88;6294188;22;19996;-78
2021/04/04 02:06:51;;;;;;;1.80;0.63;;;;;;;17.70;47.06;102885.09;6205959;23;20013;-78
2021/04/04 02:12:03;;;;;;;2.35;0.70;;;;;;;17.69;47.12;102880.75;6269297;23;20020;-79
2021/04/04 02:14:55;;;;;;;2.13;0.77;;;;;;;17.69;47.01;102883.34;6240748;23;20004;-78
2021/04/04 02:17:35;;;;;;;2.10;0.70;;;;;;;17.67;47.22;102885.03;6208606;23;20041;-78
2021/04/04 02:20:12;;;;;;;1.75;0.70;;;;;;;17.67;46.95;102890.25;6200099;23;20013;-78
2021/04/04 02:22:43;;;;;;;1.52;0.70;;;;;;;17.65;46.96;102884.97;6240266;23;20000;-78
2021/04/04 02:25:11;;;;;;;1.20;0.60;;;;;;;17.65;46.92;102892.81;6265983;22;20024;-78
2021/04/04 02:27:47;;;;;;;1.55;0.70;;;;;;;17.67;47.09;102891.09;6269383;23;20012;-79
2021/04/04 02:30:24;;;;;;;1.30;0.70;;;;;;;17.64;47.14;102880.63;6269519;23;20031;-78
2021/04/04 02:33:10;;;;;;;1.52;0.50;;;;;;;17.67;47.03;102887.63;6271280;23;20024;-80
2021/04/04 02:38:36;;;;;;;1.05;0.50;;;;;;;17.65;46.96;102874.56;6272500;22;20063;-80
2021/04/04 02:41:07;;;;;;;1.40;0.70;;;;;;;17.63;47.09;102878.88;6271463;23;20027;-78
2021/04/04 02:44:10;;;;;;;1.35;0.60;;;;;;;17.65;46.95;102863.28;6274914;22;20014;-79
2021/04/04 02:46:42;;;;;;;1.23;0.70;;;;;;;17.62;46.98;102866.69;6271859;23;20004;-78
2021/04/04 02:49:11;;;;;;;1.58;0.60;;;;;;;17.64;47.13;102858.94;6273562;22;19984;-78
2021/04/04 02:52:01;;;;;;;1.20;0.60;;;;;;;17.63;47.31;102855.44;6246146;23;20023;-79
2021/04/04 02:54:28;;;;;;;1.05;0.60;;;;;;;17.64;47.11;102856.34;6270189;23;20011;-79
2021/04/04 02:56:58;;;;;;;2.03;0.70;;;;;;;17.63;46.98;102863.25;6272817;22;20055;-78
2021/04/04 02:59:53;;;;;;;1.52;0.77;;;;;;;17.64;46.92;102858.94;6247463;23;20026;-78
2021/04/04 03:02:25;;;;;;;0.93;0.60;;;;;;;17.63;46.98;102851.97;6256092;23;20019;-78
2021/04/04 03:04:52;;;;;;;2.45;0.60;;;;;;;17.61;46.92;102846.69;6267081;22;19992;-78
2021/04/04 03:07:23;;;;;;;1.63;0.80;;;;;;;17.61;46.77;102848.44;6273101;22;20008;-79
2021/04/04 03:10:26;;;;;;;1.88;0.70;;;;;;;17.63;46.79;102852.81;6231452;22;20016;-80
2021/04/04 03:13:08;;;;;;;1.15;0.55;;;;;;;17.60;47.02;102838.88;6208850;23;20017;-78
2021/04/04 03:18:32;;;;;;;1.70;0.60;;;;;;;17.59;46.88;102837.97;6233777;22;20044;-78
2021/04/04 03:21:04;;;;;;;1.60;0.60;;;;;;;17.59;46.91;102840.59;6242267;23;20012;-78
2021/04/04 03:23:53;;;;;;;1.63;0.60;;;;;;;17.60;47.11;102841.50;6192260;23;20005;-78
2021/04/04 03:28:58;;;;;;;1.77;0.52;;;;;;;17.59;46.99;102850.13;6217929;23;20103;-78
2021/04/04 03:31:28;;;;;;;1.63;0.60;;;;;;;17.59;47.01;102847.53;6206803;23;20096;-78
2021/04/04 03:34:02;;;;;;;1.48;0.60;;;;;;;17.58;46.86;102838.84;6207858;23;20008;-78
2021/04/04 03:36:37;;;;;;;1.45;0.60;;;;;;;17.57;47.01;102839.69;6180127;23;20428;-79
2021/04/04 03:39:10;;;;;;;1.63;0.55;;;;;;;17.57;46.81;102841.41;6203013;23;20008;-78
2021/04/04 03:41:39;;;;;;;2.13;0.47;;;;;;;17.57;46.98;102837.09;6196088;23;20012;-78
2021/04/04 03:44:18;;;;;;;1.35;0.60;;;;;;;17.59;47.08;102840.59;6241267;22;20028;-78
2021/04/04 03:46:50;;;;;;;1.10;0.50;;;;;;;17.58;46.92;102840.56;6213739;22;20046;-78
2021/04/04 03:49:22;;;;;;;1.10;0.50;;;;;;;17.56;46.84;102840.53;6276713;22;20068;-78
2021/04/04 03:55:19;;;;;;;1.83;0.73;;;;;;;17.58;46.97;102843.19;6212899;23;20073;-79
2021/04/04 03:57:52;;;;;;;1.75;0.60;;;;;;;17.56;47.04;102840.53;6210306;23;20002;-78
2021/04/04 04:00:26;;;;;;;0.93;0.60;;;;;;;17.55;46.92;102832.69;6204057;23;20005;-78
2021/04/04 04:03:35;;;;;;;1.20;0.65;;;;;;;17.56;46.82;102835.31;6205997;23;20012;-78
2021/04/04 04:06:09;;;;;;;1.45;0.70;;;;;;;17.56;46.90;102832.72;6209233;23;20013;-79
2021/04/04 04:09:13;;;;;;;1.05;0.50;;;;;;;17.56;47.02;102837.06;6211488;23;20023;-79
2021/04/04 04:11:58;;;;;;;0.70;0.50;;;;;;;17.54;47.15;102830.94;6208598;23;20051;-78
2021/04/04 04:14:44;;;;;;;1.10;0.50;;;;;;;17.54;46.97;102823.13;6209680;23;20033;-79
2021/04/04 04:17:31;;;;;;;1.30;0.60;;;;;;;17.51;47.00;102820.44;6208249;23;20001;-78
2021/04/04 04:20:01;;;;;;;1.40;0.50;;;;;;;17.52;46.90;102822.22;6146000;23;20126;-78
2021/04/04 04:22:34;;;;;;;1.33;0.55;;;;;;;17.54;46.98;102817.91;6174122;23;20037;-78
2021/04/04 04:25:06;;;;;;;0.93;0.43;;;;;;;17.51;47.16;102816.13;6135443;23;20064;-78
2021/04/04 04:27:56;;;;;;;0.68;0.50;;;;;;;17.51;47.17;102810.94;6155270;23;20248;-78
2021/04/04 04:36:35;;;;;;;0.82;0.50;;;;;;;17.54;47.01;102810.09;6177395;23;20033;-78
2021/04/04 04:39:13;;;;;;;0.82;0.57;;;;;;;17.55;46.85;102811.84;6177361;23;20010;-78
2021/04/04 04:41:49;;;;;;;1.23;0.40;;;;;;;17.54;46.82;102816.19;6154029;23;20029;-78
2021/04/04 04:44:23;;;;;;;1.33;0.52;;;;;;;17.50;46.97;102809.16;6151729;23;20010;-78
2021/04/04 04:46:51;;;;;;;1.50;0.60;;;;;;;17.51;47.23;102808.31;6152768;23;20009;-78
2021/04/04 04:56:04;;;;;;;1.80;0.70;;;;;;;17.50;46.76;102797.88;6181338;23;20004;-79
2021/04/04 04:58:49;;;;;;;0.90;0.50;;;;;;;17.50;47.17;102795.25;6171341;23;20006;-78
2021/04/04 05:01:38;;;;;;;0.95;0.47;;;;;;;17.51;46.95;102790.09;6148673;23;20029;-78
2021/04/04 05:04:25;;;;;;;0.82;0.50;;;;;;;17.50;47.07;102790.94;6179038;23;20005;-78
2021/04/04 05:06:58;;;;;;;1.33;0.50;;;;;;;17.49;47.32;102789.19;6154747;23;20020;-78
2021/04/04 05:09:25;;;;;;;0.90;0.55;;;;;;;17.46;47.13;102787.41;6198791;23;20024;-79
2021/04/04 05:11:53;;;;;;;1.17;0.55;;;;;;;17.50;47.03;102792.66;6216160;22;20028;-79
2021/04/04 05:17:19;;;;;;;1.23;0.52;;;;;;;17.48;47.17;102795.22;6241663;23;20023;-79
2021/04/04 05:20:08;;;;;;;1.33;0.68;;;;;;;17.48;47.17;102793.53;6273934;22;20028;-79
2021/04/04 05:22:53;;;;;;;1.13;0.50;;;;;;;17.48;46.85;102798.72;6211196;23;20076;-79
2021/04/04 05:25:42;;;;;;;0.80;0.50;;;;;;;17.47;46.99;102804.75;6164259;23;20009;-79
2021/04/04 05:28:12;;;;;;;0.80;0.60;;;;;;;17.48;47.02;102800.41;6251016;22;20032;-79
2021/04/04 05:33:52;;;;;;;1.15;0.60;;;;;;;17.48;47.03;102809.13;6286632;22;20015;-79
2021/04/04 05:39:18;;;;;;;0.95;0.50;;;;;;;17.48;46.87;102803.03;6255022;22;20015;-79
2021/04/04 05:42:21;;;;;;;1.10;0.50;;;;;;;17.45;47.05;102798.63;6128610;23;20017;-78
2021/04/04 05:45:01;;;;;;;1.27;0.60;;;;;;;17.46;46.90;102804.72;6186006;23;20048;-78
2021/04/04 05:48:05;;;;;;;1.15;0.60;;;;;;;17.47;47.00;102809.97;6205307;23;20073;-78
2021/04/04 05:51:06;;;;;;;1.02;0.55;;;;;;;17.49;46.79;102802.19;6205071;23;20053;-78
2021/04/04 05:54:18;;;;;;;1.17;0.60;;;;;;;17.47;46.79;102798.69;6185168;23;20009;-78
2021/04/04 05:57:09;;;;;;;0.75;0.60;;;;;;;17.47;46.84;102802.16;6212000;22;20031;-77
2021/04/04 06:00:07;;;;;;;1.02;0.47;;;;;;;17.47;46.95;102802.16;6230951;22;20043;-78
2021/04/04 06:03:12;;;;;;;2.33;0.68;;;;;;;17.47;46.96;102804.75;6221459;22;20021;-79
2021/04/04 06:06:02;;;;;;;1.25;0.75;;;;;;;17.46;46.90;102803.00;6242549;22;20004;-78
2021/04/04 06:09:16;;;;;;;1.05;0.60;;;;;;;17.46;46.96;102805.63;6244314;22;20015;-78
2021/04/04 06:12:10;;;;;;;1.08;0.68;;;;;;;17.46;47.25;102803.00;6243046;22;20443;-78
2021/04/04 06:15:13;;;;;;;1.48;0.65;;;;;;;17.47;46.91;102804.75;6220033;22;20005;-78
2021/04/04 06:18:17;;;;;;;0.90;0.70;;;;;;;17.47;46.85;102809.09;6213334;23;20010;-78
2021/04/04 06:21:22;;;;;;;1.30;0.70;;;;;;;17.45;46.87;102808.19;6240763;23;20064;-78
2021/04/04 06:24:26;;;;;;;1.02;0.70;;;;;;;17.46;47.05;102805.63;6196763;23;20001;-78
2021/04/04 06:27:26;;;;;;;2.33;0.80;;;;;;;17.47;46.77;102801.28;6233212;22;20024;-78
2021/04/04 06:30:49;;;;;;;1.08;0.70;;;;;;;17.47;46.80;102807.34;6270654;23;20027;-78
2021/04/04 06:33:52;;;;;;;1.60;0.80;;;;;;;17.48;46.75;102810.84;6262807;23;20038;-78
2021/04/04 06:36:39;;;;;;;0.88;0.60;;;;;;;17.48;46.66;102813.44;6262447;23;20038;-78
2021/04/04 06:39:43;;;;;;;1.50;0.60;;;;;;;17.47;46.85;102809.97;6265388;23;20000;-78
2021/04/04 06:42:34;;;;;;;;;;;;;;;17.47;46.78;102802.16;6267643;23;20000;-79
2021/04/04 06:45:37;;;;;;;1.02;0.65;;;;;;;17.45;46.81;102802.97;6210355;23;19911;-78
2021/04/04 06:48:44;;;;;;;1.52;0.85;;;;;;;17.45;46.95;102787.34;6259840;22;20351;-78
2021/04/04 06:51:25;;;;;;;1.23;0.82;;;;;;;17.44;46.76;102786.47;6261626;23;20000;-82
2021/04/04 06:54:32;;;;;;;1.73;0.88;;;;;;;17.48;46.62;102795.22;6268448;23;20034;-79
2021/04/04 06:57:52;;;;;;;0.80;0.60;;;;;;;17.48;46.70;102793.53;6209202;23;20009;-80
2021/04/04 07:01:02;;;;;;;1.67;0.75;;;;;;;17.48;46.65;102790.00;6093021;23;20010;-79
2021/04/04 07:07:34;;;;;;;1.13;0.73;;;;;;;17.47;46.70;102789.13;6182088;23;20037;-79
2021/04/04 07:14:10;;;;;;;1.58;0.75;;;;;;;17.47;46.65;102790.88;6274357;22;20036;-79
2021/04/04 07:20:22;;;;;;;1.10;0.80;;;;;;;17.46;46.83;102782.19;6273308;23;20027;-78
2021/04/04 07:23:20;;;;;;;0.73;0.63;;;;;;;17.47;46.80;102781.34;6271878;22;19995;-79
2021/04/04 07:26:01;;;;;;;0.98;0.70;;;;;;;17.47;46.78;102775.25;6271231;23;20004;-78
2021/04/04 07:28:47;;;;;;;1.40;0.82;;;;;;;17.47;46.63;102780.47;6272222;23;20011;-79
2021/04/04 07:31:20;;;;;;;1.50;0.88;;;;;;;17.46;46.62;102774.38;6271280;23;20050;-79
2021/04/04 07:34:24;;;;;;;1.60;0.90;;;;;;;17.47;46.71;102768.31;6271400;23;20004;-79
2021/04/04 07:37:35;;;;;;;1.30;0.80;;;;;;;17.48;46.84;102771.78;6272939;22;19988;-77
2021/04/04 07:40:30;;;;;;;2.15;1.00;;;;;;;17.46;46.64;102766.56;6245680;23;20012;-78
2021/04/04 07:43:18;;;;;;;1.20;0.90;;;;;;;17.47;46.61;102768.31;6203730;23;20056;-77
2021/04/04 07:45:54;;;;;;;1.70;1.00;;;;;;;17.48;46.64;102764.88;6238204;23;20008;-78
2021/04/04 07:48:32;;;;;;;2.53;1.00;;;;;;;17.48;46.61;102766.59;6260563;23;20030;-77
2021/04/04 07:51:06;;;;;;;1.35;0.90;;;;;;;17.50;46.53;102770.09;6261286;23;20041;-78
2021/04/04 07:54:00;;;;;;;1.27;1.00;;;;;;;17.52;46.46;102762.34;6263763;23;20007;-78
2021/04/04 07:57:04;;;;;;;1.75;0.85;;;;;;;17.51;46.40;102769.28;6266624;23;20005;-77
2021/04/04 08:00:10;;;;;;;1.45;0.77;;;;;;;17.53;46.63;102769.28;6274182;22;20073;-78
2021/04/04 08:03:00;;;;;;;1.17;0.82;;;;;;;17.52;46.68;102770.16;6267920;22;20034;-77
2021/04/04 08:05:57;;;;;;;1.60;1.10;;;;;;;17.51;46.59;102773.56;6289507;22;20016;-79
2021/04/04 08:09:02;;;;;;;2.00;1.20;;;;;;;17.52;46.63;102768.41;6269000;22;20482;-78
2021/04/04 08:11:56;;;;;;;1.45;0.90;;;;;;;17.55;46.42;102768.50;6267615;23;20032;-77
2021/04/04 08:15:00;;;;;;;2.58;1.10;;;;;;;17.55;46.58;102759.78;6257699;22;20020;-77
2021/04/04 08:17:28;;;;;;;1.50;1.00;;;;;;;17.58;46.50;102767.69;6239941;22;20019;-77
2021/04/04 08:20:07;;;;;;;1.85;1.15;;;;;;;17.56;46.43;102761.56;6248397;22;20046;-78
2021/04/04 08:22:54;;;;;;;1.33;0.90;;;;;;;17.56;46.26;102767.63;6271841;22;20067;-78
2021/04/04 08:25:50;;;;;;;1.92;1.20;;;;;;;17.59;46.46;102759.88;6301639;22;20015;-78
2021/04/04 08:29:06;;;;;;;1.73;1.00;;;;;;;17.61;46.15;102755.59;6277652;22;20004;-78
2021/04/04 08:31:59;;;;;;;2.10;1.02;;;;;;;17.65;46.05;102756.53;6238195;23;20016;-78
2021/04/04 08:34:41;;;;;;;2.17;1.17;;;;;;;17.64;46.01;102752.19;6279598;22;20023;-78
2021/04/04 08:37:22;;;;;;;1.40;0.98;;;;;;;17.66;46.40;102753.09;6302288;22;20049;-80
2021/04/04 08:40:15;;;;;;;1.45;1.10;;;;;;;17.67;46.22;102754.84;6328035;22;20000;-77
2021/04/04 08:42:47;;;;;;;1.60;1.10;;;;;;;17.67;46.17;102757.44;6302762;22;20071;-78
2021/04/04 08:45:52;;;;;;;1.33;0.90;;;;;;;17.65;46.64;102748.72;6245961;22;20333;-79
2021/04/04 08:48:20;;;;;;;1.83;1.00;;;;;;;17.67;46.14;102749.63;6210457;23;20428;-78
2021/04/04 08:50:47;;;;;;;1.67;1.20;;;;;;;17.70;46.10;102749.69;6210462;23;20015;-78
2021/04/04 08:53:18;;;;;;;1.20;1.02;;;;;;;17.72;45.94;102739.31;6235980;23;20000;-77
2021/04/04 08:55:48;;;;;;;1.40;1.00;;;;;;;17.71;46.31;102747.97;6235706;23;20060;-78
2021/04/04 08:58:28;;;;;;;1.85;1.33;;;;;;;17.72;45.86;102740.19;6211703;23;20008;-78
2021/04/04 09:01:01;;;;;;;2.20;1.20;;;;;;;17.71;46.05;102743.66;6215261;23;20003;-78
2021/04/04 09:03:50;;;;;;;1.52;1.13;;;;;;;17.71;46.05;102741.03;6238034;23;19989;-78
2021/04/04 09:07:12;;;;;;;1.55;1.00;;;;;;;17.74;46.15;102743.69;6215327;23;19985;-78
2021/04/04 09:09:48;;;;;;;1.77;1.00;;;;;;;17.73;46.14;102743.69;6242088;22;20027;-78
2021/04/04 09:12:15;;;;;;;1.67;1.13;;;;;;;17.76;45.83;102741.13;6239491;23;20036;-78
2021/04/04 09:14:43;;;;;;;1.35;0.98;;;;;;;17.76;45.92;102738.53;6235756;23;20012;-79
2021/04/04 09:17:16;;;;;;;1.70;1.17;;;;;;;17.77;46.11;102742.88;6232081;23;20028;-78
2021/04/04 09:19:46;;;;;;;1.60;1.00;;;;;;;17.76;45.73;102743.75;6205261;23;20521;-78
2021/04/04 09:22:22;;;;;;;2.85;1.38;;;;;;;17.79;45.87;102746.38;6231352;23;20005;-78
2021/04/04 09:24:58;;;;;;;1.90;1.20;;;;;;;17.80;46.00;102736.00;6236429;23;19999;-78
2021/04/04 09:30:22;;;;;;;1.48;0.95;;;;;;;17.81;45.82;102734.28;6268548;22;20016;-79
2021/04/04 09:32:53;;;;;;;1.73;1.20;;;;;;;17.84;45.71;102732.66;6270164;23;20008;-79
2021/04/04 09:36:18;;;;;;;1.60;1.05;;;;;;;17.84;45.71;102729.19;6286415;22;20022;-79
2021/04/04 09:38:53;;;;;;;1.70;1.23;;;;;;;17.82;45.72;102720.47;6290464;22;20023;-78
2021/04/04 09:41:19;;;;;;;1.70;1.10;;;;;;;17.81;45.82;102716.06;6300951;22;20086;-79
2021/04/04 09:44:02;;;;;;;1.35;1.10;;;;;;;17.85;45.69;102726.59;6275395;22;20022;-79
2021/04/04 09:46:36;;;;;;;1.50;1.10;;;;;;;17.83;45.53;102719.59;6297631;22;20011;-79
2021/04/04 09:49:11;;;;;;;1.85;1.30;;;;;;;17.83;45.78;102711.78;6281352;22;20041;-77
2021/04/04 09:51:55;;;;;;;2.25;1.27;;;;;;;17.87;45.62;102722.28;6293068;22;20023;-79
2021/04/04 09:55:04;;;;;;;1.70;1.27;;;;;;;17.90;45.65;102711.06;6295617;22;20018;-80
2021/04/04 09:58:09;;;;;;;1.38;1.00;;;;;;;17.92;45.64;102717.19;6296950;22;20000;-79
2021/04/04 10:00:40;;;;;;;1.88;1.05;;;;;;;17.91;45.34;102706.75;6297289;22;20391;-78
2021/04/04 10:03:24;;;;;;;1.65;1.05;;;;;;;17.93;45.52;102710.25;6269520;22;20067;-79
2021/04/04 10:09:16;;;;;;;2.28;1.30;;;;;;;17.96;45.33;102711.16;6297096;22;20015;-79
2021/04/04 10:11:43;;;;;;;1.55;1.15;;;;;;;17.96;45.43;102699.88;6280576;22;20019;-79
2021/04/04 10:14:13;;;;;;;1.60;1.20;;;;;;;17.97;45.33;102701.66;6265860;23;20035;-79
2021/04/04 10:17:18;;;;;;;1.50;1.05;;;;;;;18.02;45.45;102697.38;6293297;22;20023;-79
2021/04/04 10:19:54;;;;;;;3.00;1.40;;;;;;;18.01;45.26;102695.66;6265885;23;20081;-79
2021/04/04 10:22:29;;;;;;;2.50;1.33;;;;;;;18.05;45.30;102689.63;6266669;23;20016;-79
2021/04/04 10:25:26;;;;;;;2.35;1.20;;;;;;;18.05;45.13;102689.63;6268619;23;20095;-79
2021/04/04 10:28:07;;;;;;;2.03;1.23;;;;;;;18.06;45.34;102687.03;6239763;23;20004;-79
2021/04/04 10:30:55;;;;;;;1.63;1.17;;;;;;;18.07;45.24;102682.72;6274534;22;20024;-79
2021/04/04 10:33:27;;;;;;;1.50;1.25;;;;;;;18.06;45.16;102679.22;6290186;22;20012;-79
2021/04/04 10:36:16;;;;;;;1.48;1.13;;;;;;;18.06;45.35;102674.03;6213294;23;20008;-79
2021/04/04 10:38:48;;;;;;;1.60;1.25;;;;;;;18.11;45.11;102678.44;6234367;23;20000;-79
2021/04/04 10:41:44;;;;;;;1.98;1.10;;;;;;;18.06;44.98;102665.34;6235523;23;20004;-80
2021/04/04 10:44:41;;;;;;;1.55;1.10;;;;;;;18.07;45.23;102661.88;6235511;23;20039;-79
2021/04/04 10:47:46;;;;;;;1.88;1.35;;;;;;;18.09;45.54;102665.38;6216897;23;20004;-79
2021/04/04 10:50:16;;;;;;;1.52;1.23;;;;;;;18.05;45.08;102653.13;6246965;22;20021;-79
2021/04/04 10:53:01;;;;;;;2.08;1.40;;;;;;;18.07;45.36;102654.94;6263682;23;20062;-78
2021/04/04 10:55:27;;;;;;;1.85;1.30;;;;;;;18.07;45.24;102646.22;6238343;23;20008;-79
2021/04/04 10:57:55;;;;;;;1.85;1.17;;;;;;;18.07;45.12;102635.81;6235220;23;20008;-79
2021/04/04 11:00:22;;;;;;;2.47;1.40;;;;;;;18.08;45.30;102628.03;6238269;23;20015;-79
2021/04/04 11:02:51;;;;;;;1.50;1.23;;;;;;;18.09;45.34;102628.91;6263868;23;20000;-78
2021/04/04 11:05:29;;;;;;;1.25;1.05;;;;;;;18.15;45.24;102636.81;6266354;23;20011;-79
2021/04/04 11:07:56;;;;;;;1.88;1.20;;;;;;;18.12;45.04;102628.97;6203604;23;20073;-79
2021/04/04 11:10:22;;;;;;;1.67;1.23;;;;;;;18.19;45.08;102625.59;6177599;23;20465;-79
2021/04/04 11:12:53;;;;;;;2.22;1.23;;;;;;;18.20;44.96;102621.25;6178025;23;20016;-82
2021/04/04 11:15:28;;;;;;;2.25;1.30;;;;;;;18.22;45.04;102620.44;6124938;23;20488;-79
2021/04/04 11:18:07;;;;;;;1.75;1.40;;;;;;;18.22;44.89;102617.81;6170456;23;20017;-79
2021/04/04 11:20:36;;;;;;;1.85;1.20;;;;;;;18.24;44.97;102610.91;6178723;23;20012;-80
2021/04/04 11:23:04;;;;;;;2.00;1.20;;;;;;;18.24;44.69;102604.81;6175562;23;20432;-79
2021/04/04 11:25:31;;;;;;;1.50;1.33;;;;;;;18.25;44.87;102598.78;6203028;23;19989;-80
2021/04/04 11:27:58;;;;;;;2.65;1.27;;;;;;;18.26;45.22;102596.19;6198636;23;20005;-79
2021/04/04 11:30:32;;;;;;;2.92;1.77;;;;;;;18.30;45.30;102604.94;6174156;23;20044;-79
2021/04/04 11:33:20;;;;;;;5.90;1.75;;;;;;;18.30;45.26;102602.31;6170206;23;20013;-79
2021/04/04 11:36:06;;;;;;;3.78;1.88;;;;;;;18.30;45.52;102591.91;6169794;23;20005;-79
2021/04/04 11:38:58;;;;;;;4.20;2.30;;;;;;;18.34;45.81;102585.88;6194449;23;20004;-79
2021/04/04 11:41:28;;;;;;;3.80;2.17;;;;;;;18.35;45.56;102587.63;6203240;23;20011;-80
2021/04/04 11:44:23;;;;;;;4.35;2.22;;;;;;;18.36;45.77;102576.38;6195817;23;20016;-79
2021/04/04 11:46:52;;;;;;;2.63;2.10;;;;;;;18.35;45.75;102578.94;6233395;23;19985;-80
2021/04/04 11:49:53;;;;;;;3.95;2.00;;;;;;;18.37;45.94;102566.81;6233148;23;20001;-79
2021/04/04 11:52:38;;;;;;;3.92;2.08;;;;;;;18.39;45.83;102573.78;6205938;23;20032;-80
2021/04/04 11:55:10;;;;;;;4.25;2.38;;;;;;;18.38;45.76;102571.16;6207093;23;20012;-79
2021/04/04 11:58:13;;;;;;;2.90;2.00;;;;;;;18.41;45.77;102560.78;6238101;22;20020;-77
2021/04/04 12:00:45;;;;;;;3.17;2.05;;;;;;;18.40;45.87;102567.72;6166707;22;20008;-79
2021/04/04 12:03:31;;;;;;;3.97;2.35;;;;;;;18.38;45.87;102556.41;6249806;22;20007;-77
2021/04/04 12:06:23;;;;;;;3.33;2.10;;;;;;;18.38;46.04;102548.59;6150284;23;20022;-79
2021/04/04 12:08:48;;;;;;;3.40;2.00;;;;;;;18.40;46.12;102544.28;6120211;23;20018;-79
2021/04/04 12:11:15;;;;;;;4.35;2.13;;;;;;;18.44;46.09;102534.75;6143436;23;20042;-78
2021/04/04 12:13:59;;;;;;;2.90;2.30;;;;;;;18.44;45.87;102538.25;6118571;23;20129;-79
2021/04/04 12:16:25;;;;;;;3.92;1.95;;;;;;;18.48;46.29;102528.72;6142402;23;20009;-79
2021/04/04 12:19:07;;;;;;;5.53;2.22;;;;;;;18.49;46.22;102531.38;6141387;23;20033;-79
2021/04/04 12:21:55;;;;;;;2.43;2.10;;;;;;;18.52;46.25;102525.31;6141399;23;20006;-82
2021/04/04 12:24:39;;;;;;;2.60;1.85;;;;;;;18.58;46.15;102524.53;6029093;23;20355;-82
2021/04/04 12:27:05;;;;;;;3.97;2.10;;;;;;;18.57;46.10;102528.84;6053615;23;20495;-80
2021/04/04 12:29:49;;;;;;;3.35;2.10;;;;;;;18.57;46.31;102531.44;6011423;23;20038;-79
2021/04/04 12:32:32;;;;;;;;;;;;;;;18.59;46.17;102523.66;6033856;23;20011;-79
2021/04/04 12:35:00;;;;;;;2.95;1.92;;;;;;;18.58;46.26;102522.78;6054690;23;19910;-79
2021/04/04 12:37:30;;;;;;;4.32;2.05;;;;;;;18.57;46.38;102514.94;6057088;23;20010;-83
2021/04/04 12:39:59;;;;;;;3.00;2.22;;;;;;;18.59;46.06;102503.66;6057426;23;20011;-79
2021/04/04 12:42:34;;;;;;;5.45;2.30;;;;;;;18.62;46.44;102505.47;6056393;23;20045;-79
2021/04/04 12:45:18;;;;;;;4.18;2.30;;;;;;;18.62;46.21;102492.44;6054472;23;20024;-80
2021/04/04 12:47:43;;;;;;;7.25;2.58;;;;;;;18.62;46.22;102493.28;6030169;23;20487;-79
2021/04/04 12:50:17;;;;;;;11.00;2.30;;;;;;;18.61;46.42;102485.44;6142620;23;20079;-81
2021/04/04 12:53:01;;;;;;;4.72;2.10;;;;;;;18.62;46.39;102485.47;6201765;23;20036;-81
2021/04/04 12:55:50;;;;;;;4.10;2.10;;;;;;;18.58;46.39;102486.28;6180253;23;20009;-81
2021/04/04 12:58:15;;;;;;;3.00;2.10;;;;;;;18.59;46.53;102492.38;6203906;23;20024;-81
2021/04/04 13:00:54;;;;;;;5.85;2.20;;;;;;;18.59;46.65;102487.16;6178981;23;20017;-81
2021/04/04 13:03:20;;;;;;;7.68;2.25;;;;;;;18.58;46.42;102483.69;6169574;23;20010;-79
2021/04/04 13:06:06;;;;;;;5.25;2.28;;;;;;;18.62;46.45;102467.22;6170855;23;20021;-81
2021/04/04 13:08:35;;;;;;;4.80;2.20;;;;;;;18.64;46.32;102457.69;6208618;23;19996;-80
2021/04/04 13:11:44;;;;;;;5.65;2.30;;;;;;;18.66;46.40;102450.75;6242993;23;20447;-81
2021/04/04 13:14:15;;;;;;;3.33;1.75;;;;;;;18.67;46.42;102443.81;6243399;23;20004;-79
2021/04/04 13:16:47;;;;;;;4.95;2.10;;;;;;;18.68;46.47;102449.03;6243387;23;20011;-81
2021/04/04 13:19:50;;;;;;;3.17;2.00;;;;;;;18.70;46.57;102441.22;6245325;22;19992;-82
2021/04/04 13:22:15;;;;;;;3.23;2.07;;;;;;;18.69;46.80;102432.53;6273129;23;20002;-81
2021/04/04 13:24:59;;;;;;;3.08;2.03;;;;;;;18.68;46.71;102422.97;6268947;23;20001;-81
2021/04/04 13:27:25;;;;;;;4.85;2.03;;;;;;;18.70;46.74;102425.56;6240170;23;20008;-86
2021/04/04 13:29:56;;;;;;;5.15;2.00;;;;;;;18.73;46.66;102429.94;6241975;23;20000;-81
2021/04/04 13:32:40;;;;;;;4.28;2.10;;;;;;;18.68;46.71;102422.97;6266390;23;20015;-84
2021/04/04 13:35:41;;;;;;;3.25;2.00;;;;;;;18.71;46.51;102417.78;6238117;23;20167;-81
2021/04/04 13:38:14;;;;;;;3.35;1.60;;;;;;;18.71;46.54;102417.78;6144775;23;20021;-81
2021/04/04 13:40:40;;;;;;;2.20;1.90;;;;;;;18.72;46.71;102410.81;6248223;23;20008;-86
2021/04/04 13:43:32;;;;;;;4.30;1.92;;;;;;;18.70;46.87;102395.19;6257510;22;20097;-85
2021/04/04 13:48:36;;;;;;;3.00;1.92;;;;;;;18.76;46.70;102377.84;6290632;22;20020;-80
2021/04/04 13:51:40;;;;;;;4.90;1.83;;;;;;;18.77;46.70;102375.25;6245435;22;20018;-79
2021/04/04 13:54:41;;;;;;;2.45;1.73;;;;;;;18.75;46.85;102370.84;6295056;22;20014;-80
2021/04/04 13:57:11;;;;;;;3.05;2.25;;;;;;;18.78;46.81;102384.84;6232722;23;20005;-83
2021/04/04 13:59:57;;;;;;;2.35;1.80;;;;;;;18.76;46.75;102375.22;6235300;23;20016;-89
2021/04/04 14:02:46;;;;;;;3.15;1.70;;;;;;;18.77;46.96;102375.25;6212985;22;20016;-81
2021/04/04 14:05:34;;;;;;;3.47;2.00;;;;;;;18.77;46.91;102356.09;6270352;22;20008;-80
2021/04/04 14:08:25;;;;;;;2.42;1.60;;;;;;;18.77;46.95;102363.91;6272467;22;20018;-81
2021/04/04 14:10:53;;;;;;;2.75;1.70;;;;;;;18.75;46.94;102355.19;6268898;23;20012;-81
2021/04/04 14:13:19;;;;;;;2.70;2.00;;;;;;;18.78;46.89;102360.50;6240263;23;20024;-81
2021/04/04 14:15:51;;;;;;;3.80;1.73;;;;;;;18.74;46.91;102341.28;6260480;23;20011;-79